createdAt,value
2018-08-31T00:00:09.239Z,2.80
2018-08-31T00:01:09.039Z,4.30
2018-08-31T00:02:09.250Z,3.00
2018-08-31T00:03:09.049Z,4.50
2018-08-31T00:04:09.041Z,3.70
2018-08-31T00:05:09.037Z,4.90
2018-08-31T00:06:09.039Z,4.60
2018-08-31T00:07:09.041Z,3.00
2018-08-31T00:08:09.053Z,5.10
2018-08-31T00:09:09.043Z,4.90
2018-08-31T00:10:09.257Z,3.50
2018-08-31T00:11:09.262Z,4.80
2018-08-31T00:12:09.252Z,2.70
2018-08-31T00:13:09.047Z,3.70
2018-08-31T00:14:09.049Z,2.70
2018-08-31T00:15:09.057Z,3.70
2018-08-31T00:16:09.274Z,4.30
2018-08-31T00:17:09.049Z,4.60
2018-08-31T00:18:09.050Z,2.70
2018-08-31T00:19:09.052Z,4.60
2018-08-31T00:20:09.053Z,3.80
2018-08-31T00:21:09.050Z,4.60
2018-08-31T00:22:09.051Z,2.10
2018-08-31T00:23:09.253Z,3.00
2018-08-31T00:24:09.256Z,5.00
2018-08-31T00:25:09.255Z,5.60
2018-08-31T00:26:09.267Z,6.00
2018-08-31T00:27:09.054Z,2.80
2018-08-31T00:28:09.284Z,4.40
2018-08-31T00:29:09.055Z,3.80
2018-08-31T00:30:09.064Z,3.60
2018-08-31T00:31:09.056Z,5.10
2018-08-31T00:32:09.055Z,7.00
2018-08-31T00:33:09.262Z,7.70
2018-08-31T00:34:09.077Z,6.90
2018-08-31T00:35:09.068Z,7.00
2018-08-31T00:36:09.057Z,6.40
2018-08-31T00:37:09.056Z,4.80
2018-08-31T00:38:09.067Z,3.70
2018-08-31T00:39:09.056Z,4.80
2018-08-31T00:40:09.060Z,5.70
2018-08-31T00:41:09.080Z,3.90
2018-08-31T00:42:09.086Z,6.00
2018-08-31T00:43:09.062Z,4.10
2018-08-31T00:44:09.061Z,4.10
2018-08-31T00:45:09.057Z,4.40
2018-08-31T00:46:09.290Z,5.20
2018-08-31T00:47:09.071Z,5.80
2018-08-31T00:48:09.074Z,4.40
2018-08-31T00:49:09.060Z,5.00
2018-08-31T00:50:09.056Z,3.70
2018-08-31T00:51:09.075Z,4.20
2018-08-31T00:52:09.058Z,3.00
2018-08-31T00:53:09.070Z,5.30
2018-08-31T00:54:09.272Z,3.70
2018-08-31T00:55:09.060Z,4.40
2018-08-31T00:56:09.060Z,3.30
2018-08-31T00:57:09.070Z,4.50
2018-08-31T00:58:09.071Z,4.70
2018-08-31T00:59:09.060Z,5.10
2018-08-31T01:00:09.279Z,4.30
2018-08-31T01:01:09.277Z,3.70
2018-08-31T01:02:09.062Z,4.20
2018-08-31T01:03:09.063Z,5.70
2018-08-31T01:04:09.091Z,4.60
2018-08-31T01:05:09.094Z,6.60
2018-08-31T01:06:09.265Z,6.20
2018-08-31T01:07:09.064Z,3.90
2018-08-31T01:08:09.064Z,5.00
2018-08-31T01:09:09.063Z,5.10
2018-08-31T01:10:09.062Z,5.50
2018-08-31T01:11:09.079Z,3.40
2018-08-31T01:12:09.065Z,4.90
2018-08-31T01:13:09.271Z,4.20
2018-08-31T01:14:09.067Z,5.30
2018-08-31T01:15:09.067Z,5.50
2018-08-31T01:16:09.279Z,5.00
2018-08-31T01:17:09.078Z,5.70
2018-08-31T01:18:09.074Z,5.00
2018-08-31T01:19:09.281Z,3.00
2018-08-31T01:20:09.084Z,4.90
2018-08-31T01:21:09.069Z,4.30
2018-08-31T01:22:09.070Z,5.30
2018-08-31T01:23:09.084Z,4.50
2018-08-31T01:24:09.083Z,3.30
2018-08-31T01:25:09.072Z,3.10
2018-08-31T01:26:09.073Z,3.30
2018-08-31T01:27:09.082Z,7.00
2018-08-31T01:28:09.098Z,4.20
2018-08-31T01:29:09.081Z,4.50
2018-08-31T01:30:09.098Z,7.00
2018-08-31T01:31:09.073Z,5.60
2018-08-31T01:32:09.083Z,4.30
2018-08-31T01:33:09.090Z,6.20
2018-08-31T01:34:09.074Z,9.50
2018-08-31T01:35:09.085Z,5.20
2018-08-31T01:36:09.088Z,3.50
2018-08-31T01:37:09.086Z,6.30
2018-08-31T01:38:09.093Z,5.40
2018-08-31T01:39:09.129Z,4.80
2018-08-31T01:40:09.078Z,3.90
2018-08-31T01:41:09.097Z,2.90
2018-08-31T01:42:09.080Z,3.60
2018-08-31T01:43:09.088Z,5.40
2018-08-31T01:44:09.080Z,4.60
2018-08-31T01:45:09.096Z,5.50
2018-08-31T01:46:09.079Z,4.10
2018-08-31T01:47:09.079Z,5.60
2018-08-31T01:48:09.296Z,4.20
2018-08-31T01:49:09.298Z,4.90
2018-08-31T01:50:09.080Z,5.80
2018-08-31T01:51:09.084Z,4.60
2018-08-31T01:52:09.081Z,4.30
2018-08-31T01:53:09.296Z,4.60
2018-08-31T01:54:09.083Z,6.30
2018-08-31T01:55:09.285Z,9.90
2018-08-31T01:56:09.084Z,8.20
2018-08-31T01:57:09.083Z,7.40
2018-08-31T01:58:09.084Z,5.50
2018-08-31T01:59:09.100Z,9.10
2018-08-31T02:00:09.084Z,4.90
2018-08-31T02:01:09.096Z,10.30
2018-08-31T02:02:09.300Z,6.50
2018-08-31T02:03:09.085Z,5.60
2018-08-31T02:04:09.329Z,6.50
2018-08-31T02:05:09.104Z,5.70
2018-08-31T02:06:09.086Z,5.60
2018-08-31T02:07:09.096Z,6.10
2018-08-31T02:08:09.087Z,4.90
2018-08-31T02:09:09.086Z,6.60
2018-08-31T02:10:09.300Z,4.10
2018-08-31T02:11:09.086Z,6.40
2018-08-31T02:12:09.087Z,4.30
2018-08-31T02:13:09.293Z,5.10
2018-08-31T02:14:09.091Z,9.80
2018-08-31T02:15:09.306Z,6.40
2018-08-31T02:16:09.307Z,4.70
2018-08-31T02:17:09.089Z,5.60
2018-08-31T02:18:09.090Z,4.60
2018-08-31T02:19:09.295Z,3.90
2018-08-31T02:20:09.089Z,5.20
2018-08-31T02:21:09.292Z,6.70
2018-08-31T02:22:09.091Z,6.60
2018-08-31T02:23:09.089Z,5.00
2018-08-31T02:24:09.104Z,3.60
2018-08-31T02:25:09.304Z,5.20
2018-08-31T02:26:09.088Z,6.30
2018-08-31T02:27:09.311Z,6.70
2018-08-31T02:28:09.092Z,9.00
2018-08-31T02:29:09.094Z,4.80
2018-08-31T02:30:09.090Z,4.90
2018-08-31T02:31:09.091Z,2.60
2018-08-31T02:32:09.093Z,6.50
2018-08-31T02:33:09.091Z,5.40
2018-08-31T02:34:09.102Z,6.50
2018-08-31T02:35:09.092Z,7.30
2018-08-31T02:36:09.117Z,4.30
2018-08-31T02:37:09.091Z,5.80
2018-08-31T02:38:09.103Z,3.50
2018-08-31T02:39:09.115Z,5.00
2018-08-31T02:40:09.097Z,4.30
2018-08-31T02:41:09.093Z,3.90
2018-08-31T02:42:09.310Z,3.80
2018-08-31T02:43:09.298Z,4.40
2018-08-31T02:44:09.309Z,4.40
2018-08-31T02:45:09.096Z,4.40
2018-08-31T02:46:09.103Z,5.10
2018-08-31T02:47:09.107Z,3.70
2018-08-31T02:48:09.124Z,5.00
2018-08-31T02:49:09.106Z,4.30
2018-08-31T02:50:09.093Z,6.30
2018-08-31T02:51:09.296Z,3.60
2018-08-31T02:52:09.110Z,6.50
2018-08-31T02:53:09.099Z,7.60
2018-08-31T02:54:09.094Z,5.70
2018-08-31T02:55:09.098Z,8.40
2018-08-31T02:56:09.301Z,5.70
2018-08-31T02:57:09.302Z,4.70
2018-08-31T02:58:09.298Z,5.60
2018-08-31T02:59:09.096Z,5.90
2018-08-31T03:00:09.123Z,6.60
2018-08-31T03:01:09.300Z,7.00
2018-08-31T03:02:09.299Z,5.00
2018-08-31T03:03:09.096Z,4.40
2018-08-31T03:04:09.097Z,4.30
2018-08-31T03:05:09.097Z,4.70
2018-08-31T03:06:09.111Z,7.00
2018-08-31T03:07:09.099Z,4.00
2018-08-31T03:08:09.312Z,4.40
2018-08-31T03:09:09.097Z,5.50
2018-08-31T03:10:09.300Z,3.60
2018-08-31T03:11:09.122Z,8.20
2018-08-31T03:12:09.313Z,5.20
2018-08-31T03:13:09.302Z,6.40
2018-08-31T03:14:09.304Z,4.30
2018-08-31T03:15:09.302Z,5.40
2018-08-31T03:16:09.303Z,4.00
2018-08-31T03:17:09.099Z,6.40
2018-08-31T03:18:09.099Z,5.20
2018-08-31T03:19:09.098Z,6.30
2018-08-31T03:20:09.101Z,6.90
2018-08-31T03:21:09.165Z,5.70
2018-08-31T03:22:09.109Z,5.70
2018-08-31T03:23:09.110Z,9.60
2018-08-31T03:24:09.112Z,4.40
2018-08-31T03:25:09.101Z,4.20
2018-08-31T03:26:09.121Z,5.00
2018-08-31T03:27:09.101Z,4.50
2018-08-31T03:28:09.102Z,4.20
2018-08-31T03:29:09.307Z,7.30
2018-08-31T03:30:09.113Z,3.90
2018-08-31T03:31:09.105Z,5.20
2018-08-31T03:32:09.118Z,4.60
2018-08-31T03:33:09.118Z,4.10
2018-08-31T03:34:09.116Z,3.60
2018-08-31T03:35:09.305Z,5.50
2018-08-31T03:36:09.104Z,4.50
2018-08-31T03:37:09.109Z,3.50
2018-08-31T03:38:09.307Z,4.60
2018-08-31T03:39:09.105Z,5.40
2018-08-31T03:40:09.117Z,5.80
2018-08-31T03:41:09.107Z,3.80
2018-08-31T03:42:09.110Z,3.90
2018-08-31T03:43:09.104Z,3.40
2018-08-31T03:44:09.314Z,5.30
2018-08-31T03:45:09.119Z,4.10
2018-08-31T03:46:09.106Z,5.20
2018-08-31T03:47:09.119Z,5.30
2018-08-31T03:48:09.110Z,4.40
2018-08-31T03:49:09.110Z,4.40
2018-08-31T03:50:09.113Z,4.00
2018-08-31T03:51:09.111Z,4.10
2018-08-31T03:52:09.109Z,6.60
2018-08-31T03:53:09.110Z,4.20
2018-08-31T03:54:09.122Z,4.70
2018-08-31T03:55:09.109Z,6.20
2018-08-31T03:56:09.117Z,5.30
2018-08-31T03:57:09.316Z,4.70
2018-08-31T03:58:09.315Z,5.80
2018-08-31T03:59:09.112Z,7.10
2018-08-31T04:00:09.124Z,5.30
2018-08-31T04:01:09.325Z,5.10
2018-08-31T04:02:09.111Z,2.90
2018-08-31T04:03:09.111Z,7.30
2018-08-31T04:04:09.111Z,5.20
2018-08-31T04:05:09.110Z,4.60
2018-08-31T04:06:09.113Z,6.70
2018-08-31T04:07:09.112Z,6.50
2018-08-31T04:08:09.315Z,6.50
2018-08-31T04:09:09.328Z,4.00
2018-08-31T04:10:09.132Z,11.60
2018-08-31T04:11:09.126Z,5.50
2018-08-31T04:12:09.129Z,5.20
2018-08-31T04:13:09.316Z,8.90
2018-08-31T04:14:09.127Z,5.60
2018-08-31T04:15:09.227Z,7.00
2018-08-31T04:16:09.114Z,6.20
2018-08-31T04:17:09.124Z,5.30
2018-08-31T04:18:09.148Z,7.30
2018-08-31T04:19:09.143Z,5.70
2018-08-31T04:20:09.147Z,6.30
2018-08-31T04:21:09.319Z,8.00
2018-08-31T04:22:09.319Z,6.50
2018-08-31T04:23:09.136Z,7.10
2018-08-31T04:24:09.119Z,7.00
2018-08-31T04:25:09.121Z,5.90
2018-08-31T04:26:09.323Z,6.10
2018-08-31T04:27:09.321Z,5.80
2018-08-31T04:28:09.117Z,6.00
2018-08-31T04:29:09.118Z,4.90
2018-08-31T04:30:09.129Z,7.70
2018-08-31T04:31:09.132Z,6.60
2018-08-31T04:32:09.134Z,4.80
2018-08-31T04:33:09.133Z,5.30
2018-08-31T04:34:09.147Z,6.20
2018-08-31T04:35:09.122Z,7.20
2018-08-31T04:36:09.137Z,5.60
2018-08-31T04:37:09.127Z,5.10
2018-08-31T04:38:09.125Z,5.50
2018-08-31T04:39:09.328Z,4.70
2018-08-31T04:40:09.126Z,4.70
2018-08-31T04:41:09.330Z,5.10
2018-08-31T04:42:09.123Z,7.00
2018-08-31T04:43:09.328Z,5.40
2018-08-31T04:44:09.129Z,4.60
2018-08-31T04:45:09.148Z,6.50
2018-08-31T04:46:09.129Z,5.80
2018-08-31T04:47:09.125Z,6.30
2018-08-31T04:48:09.329Z,5.80
2018-08-31T04:49:09.131Z,3.50
2018-08-31T04:50:09.128Z,4.50
2018-08-31T04:51:09.139Z,4.00
2018-08-31T04:52:09.338Z,5.70
2018-08-31T04:53:09.142Z,4.50
2018-08-31T04:54:09.131Z,5.70
2018-08-31T04:55:09.334Z,5.50
2018-08-31T04:56:09.381Z,4.40
2018-08-31T04:57:09.142Z,6.20
2018-08-31T04:58:09.340Z,6.60
2018-08-31T04:59:09.346Z,6.30
2018-08-31T05:00:09.139Z,5.80
2018-08-31T05:01:09.141Z,3.70
2018-08-31T05:02:09.131Z,5.30
2018-08-31T05:03:09.134Z,5.10
2018-08-31T05:04:09.337Z,10.00
2018-08-31T05:05:09.137Z,7.50
2018-08-31T05:06:09.154Z,6.70
2018-08-31T05:07:09.147Z,5.00
2018-08-31T05:08:09.147Z,6.20
2018-08-31T05:09:09.355Z,5.10
2018-08-31T05:10:09.154Z,5.90
2018-08-31T05:11:09.343Z,5.50
2018-08-31T05:12:09.149Z,8.00
2018-08-31T05:13:09.155Z,6.30
2018-08-31T05:14:09.148Z,4.40
2018-08-31T05:15:09.150Z,4.80
2018-08-31T05:16:09.236Z,4.10
2018-08-31T05:17:09.140Z,5.40
2018-08-31T05:18:09.140Z,5.60
2018-08-31T05:19:09.143Z,6.20
2018-08-31T05:20:09.344Z,6.20
2018-08-31T05:21:09.145Z,7.00
2018-08-31T05:22:09.139Z,7.20
2018-08-31T05:23:09.177Z,8.90
2018-08-31T05:24:09.347Z,7.60
2018-08-31T05:25:09.156Z,6.40
2018-08-31T05:26:09.143Z,7.30
2018-08-31T05:27:09.150Z,6.40
2018-08-31T05:28:09.141Z,5.30
2018-08-31T05:29:09.144Z,4.80
2018-08-31T05:30:09.143Z,7.00
2018-08-31T05:31:09.348Z,5.10
2018-08-31T05:32:09.141Z,6.50
2018-08-31T05:33:09.144Z,5.30
2018-08-31T05:34:09.371Z,6.00
2018-08-31T05:35:09.141Z,6.00
2018-08-31T05:36:09.141Z,5.50
2018-08-31T05:37:09.397Z,5.60
2018-08-31T05:38:09.141Z,5.70
2018-08-31T05:39:09.145Z,5.10
2018-08-31T05:40:09.142Z,6.20
2018-08-31T05:41:09.154Z,5.90
2018-08-31T05:42:09.140Z,7.10
2018-08-31T05:43:09.150Z,5.60
2018-08-31T05:44:09.165Z,7.10
2018-08-31T05:45:09.148Z,5.20
2018-08-31T05:46:09.341Z,7.90
2018-08-31T05:47:09.167Z,6.50
2018-08-31T05:48:09.340Z,3.70
2018-08-31T05:49:09.136Z,5.00
2018-08-31T05:50:09.136Z,5.80
2018-08-31T05:51:09.136Z,5.80
2018-08-31T05:52:09.182Z,7.60
2018-08-31T05:53:09.156Z,5.20
2018-08-31T05:54:09.146Z,4.10
2018-08-31T05:55:09.144Z,4.40
2018-08-31T05:56:09.148Z,6.60
2018-08-31T05:57:09.134Z,4.20
2018-08-31T05:58:09.133Z,5.20
2018-08-31T05:59:09.149Z,4.50
2018-08-31T06:00:09.340Z,5.50
2018-08-31T06:01:09.139Z,4.40
2018-08-31T06:02:09.369Z,7.20
2018-08-31T06:03:09.133Z,6.20
2018-08-31T06:04:09.146Z,4.90
2018-08-31T06:05:09.161Z,5.30
2018-08-31T06:06:09.148Z,4.60
2018-08-31T06:07:09.330Z,5.50
2018-08-31T06:08:09.126Z,5.20
2018-08-31T06:09:09.140Z,3.60
2018-08-31T06:10:09.329Z,5.30
2018-08-31T06:11:09.126Z,5.80
2018-08-31T06:12:09.127Z,6.10
2018-08-31T06:13:09.128Z,7.50
2018-08-31T06:14:09.125Z,4.70
2018-08-31T06:15:09.340Z,3.90
2018-08-31T06:16:09.133Z,8.20
2018-08-31T06:17:09.138Z,6.70
2018-08-31T06:18:09.133Z,6.20
2018-08-31T06:19:09.135Z,5.40
2018-08-31T06:20:09.326Z,5.20
2018-08-31T06:21:09.253Z,5.20
2018-08-31T06:22:09.122Z,4.50
2018-08-31T06:23:09.335Z,5.20
2018-08-31T06:24:09.120Z,5.20
2018-08-31T06:25:09.323Z,9.60
2018-08-31T06:26:09.135Z,5.90
2018-08-31T06:27:09.165Z,6.30
2018-08-31T06:28:09.135Z,5.90
2018-08-31T06:29:09.128Z,4.80
2018-08-31T06:30:09.130Z,5.90
2018-08-31T06:31:09.322Z,5.30
2018-08-31T06:32:09.129Z,5.70
2018-08-31T06:33:09.146Z,6.80
2018-08-31T06:34:09.128Z,5.70
2018-08-31T06:35:09.131Z,8.00
2018-08-31T06:36:09.150Z,10.50
2018-08-31T06:37:09.138Z,8.10
2018-08-31T06:38:09.119Z,7.90
2018-08-31T06:39:09.134Z,9.00
2018-08-31T06:40:09.322Z,7.30
2018-08-31T06:41:09.334Z,6.70
2018-08-31T06:42:09.129Z,10.90
2018-08-31T06:43:09.119Z,8.60
2018-08-31T06:44:09.117Z,6.20
2018-08-31T06:45:09.333Z,4.90
2018-08-31T06:46:09.116Z,8.90
2018-08-31T06:47:09.132Z,8.60
2018-08-31T06:48:09.116Z,8.40
2018-08-31T06:49:09.121Z,7.60
2018-08-31T06:50:09.131Z,8.20
2018-08-31T06:51:09.155Z,10.70
2018-08-31T06:52:09.119Z,7.10
2018-08-31T06:53:09.323Z,7.00
2018-08-31T06:54:09.129Z,5.10
2018-08-31T06:55:09.131Z,7.30
2018-08-31T06:56:09.334Z,6.20
2018-08-31T06:57:09.322Z,6.00
2018-08-31T06:58:09.131Z,9.40
2018-08-31T06:59:09.322Z,5.90
2018-08-31T07:00:09.338Z,5.30
2018-08-31T07:01:09.123Z,6.30
2018-08-31T07:02:09.137Z,7.40
2018-08-31T07:03:09.137Z,7.30
2018-08-31T07:04:09.136Z,6.10
2018-08-31T07:05:09.126Z,4.80
2018-08-31T07:06:09.146Z,5.50
2018-08-31T07:07:09.325Z,6.50
2018-08-31T07:08:09.146Z,5.20
2018-08-31T07:09:09.337Z,7.20
2018-08-31T07:10:09.123Z,6.50
2018-08-31T07:11:09.132Z,5.40
2018-08-31T07:12:09.161Z,6.30
2018-08-31T07:13:09.134Z,5.40
2018-08-31T07:14:09.124Z,7.00
2018-08-31T07:15:09.139Z,5.10
2018-08-31T07:16:09.339Z,8.10
2018-08-31T07:17:09.346Z,7.60
2018-08-31T07:18:09.123Z,5.00
2018-08-31T07:19:09.215Z,5.00
2018-08-31T07:20:09.128Z,7.10
2018-08-31T07:21:09.153Z,6.90
2018-08-31T07:22:09.130Z,5.90
2018-08-31T07:23:09.127Z,9.10
2018-08-31T07:24:09.155Z,6.00
2018-08-31T07:25:09.137Z,9.70
2018-08-31T07:26:09.168Z,4.20
2018-08-31T07:27:09.346Z,4.60
2018-08-31T07:28:09.140Z,4.90
2018-08-31T07:29:09.332Z,4.00
2018-08-31T07:30:09.332Z,7.10
2018-08-31T07:31:09.161Z,4.50
2018-08-31T07:32:09.412Z,4.80
2018-08-31T07:33:09.143Z,5.50
2018-08-31T07:34:09.131Z,6.60
2018-08-31T07:35:09.144Z,5.80
2018-08-31T07:36:09.151Z,7.20
2018-08-31T07:37:09.134Z,7.10
2018-08-31T07:38:09.133Z,6.70
2018-08-31T07:39:09.149Z,6.30
2018-08-31T07:40:09.144Z,5.90
2018-08-31T07:41:09.350Z,6.90
2018-08-31T07:42:09.147Z,8.70
2018-08-31T07:43:09.341Z,6.50
2018-08-31T07:44:09.351Z,5.20
2018-08-31T07:45:09.139Z,5.70
2018-08-31T07:46:09.142Z,6.40
2018-08-31T07:47:09.356Z,6.00
2018-08-31T07:48:09.153Z,5.10
2018-08-31T07:49:09.157Z,7.40
2018-08-31T07:50:09.345Z,6.80
2018-08-31T07:51:09.143Z,5.30
2018-08-31T07:52:09.168Z,5.70
2018-08-31T07:53:09.155Z,5.80
2018-08-31T07:54:09.159Z,4.40
2018-08-31T07:55:09.147Z,6.40
2018-08-31T07:56:09.149Z,6.50
2018-08-31T07:57:09.149Z,7.10
2018-08-31T07:58:09.367Z,4.60
2018-08-31T07:59:09.156Z,8.80
2018-08-31T08:00:09.164Z,5.90
2018-08-31T08:01:09.156Z,6.30
2018-08-31T08:02:09.159Z,7.20
2018-08-31T08:03:09.169Z,5.50
2018-08-31T08:04:09.360Z,5.40
2018-08-31T08:05:09.161Z,7.20
2018-08-31T08:06:09.160Z,4.40
2018-08-31T08:07:09.366Z,6.30
2018-08-31T08:08:09.374Z,5.10
2018-08-31T08:09:09.163Z,4.80
2018-08-31T08:10:09.165Z,6.30
2018-08-31T08:11:09.164Z,6.30
2018-08-31T08:12:09.379Z,6.60
2018-08-31T08:13:09.168Z,4.90
2018-08-31T08:14:09.186Z,5.70
2018-08-31T08:15:09.387Z,5.10
2018-08-31T08:16:09.385Z,5.30
2018-08-31T08:17:09.386Z,2.70
2018-08-31T08:18:09.204Z,4.70
2018-08-31T08:19:09.183Z,4.00
2018-08-31T08:20:09.176Z,4.80
2018-08-31T08:21:09.181Z,5.40
2018-08-31T08:22:09.395Z,3.50
2018-08-31T08:23:09.193Z,5.10
2018-08-31T08:24:09.196Z,4.70
2018-08-31T08:25:09.384Z,4.50
2018-08-31T08:26:09.193Z,5.20
2018-08-31T08:27:09.184Z,4.90
2018-08-31T08:28:09.249Z,4.80
2018-08-31T08:29:09.204Z,5.10
2018-08-31T08:30:09.391Z,5.40
2018-08-31T08:31:09.393Z,4.60
2018-08-31T08:32:09.420Z,5.10
2018-08-31T08:33:09.206Z,5.70
2018-08-31T08:34:09.402Z,4.90
2018-08-31T08:35:09.211Z,4.00
2018-08-31T08:36:09.203Z,4.50
2018-08-31T08:37:09.206Z,4.10
2018-08-31T08:38:09.399Z,3.50
2018-08-31T08:39:09.206Z,6.60
2018-08-31T08:40:09.208Z,2.60
2018-08-31T08:41:09.199Z,5.30
2018-08-31T08:42:09.323Z,3.80
2018-08-31T08:43:09.427Z,5.70
2018-08-31T08:44:09.222Z,5.10
2018-08-31T08:45:09.212Z,4.70
2018-08-31T08:46:09.205Z,4.60
2018-08-31T08:47:09.219Z,2.70
2018-08-31T08:48:09.435Z,2.80
2018-08-31T08:49:09.217Z,3.70
2018-08-31T08:50:09.216Z,3.80
2018-08-31T08:51:09.222Z,2.90
2018-08-31T08:52:09.422Z,3.80
2018-08-31T08:53:09.212Z,4.00
2018-08-31T08:54:09.428Z,4.80
2018-08-31T08:55:09.228Z,5.00
2018-08-31T08:56:09.213Z,5.20
2018-08-31T08:57:09.215Z,3.40
2018-08-31T08:58:09.293Z,3.80
2018-08-31T08:59:09.219Z,6.60
2018-08-31T09:00:09.218Z,5.20
2018-08-31T09:01:09.221Z,3.20
2018-08-31T09:02:09.245Z,4.00
2018-08-31T09:03:09.225Z,3.50
2018-08-31T09:04:09.427Z,3.30
2018-08-31T09:05:09.235Z,4.00
2018-08-31T09:06:09.222Z,4.20
2018-08-31T09:07:09.238Z,5.40
2018-08-31T09:08:09.228Z,4.90
2018-08-31T09:09:09.453Z,4.60
2018-08-31T09:10:09.234Z,5.00
2018-08-31T09:11:09.245Z,3.20
2018-08-31T09:12:09.250Z,3.20
2018-08-31T09:13:09.243Z,4.00
2018-08-31T09:14:09.252Z,4.60
2018-08-31T09:15:09.234Z,2.00
2018-08-31T09:16:09.233Z,4.50
2018-08-31T09:17:09.235Z,4.00
2018-08-31T09:18:09.238Z,3.80
2018-08-31T09:19:09.252Z,2.60
2018-08-31T09:20:09.296Z,3.30
2018-08-31T09:21:09.265Z,3.80
2018-08-31T09:22:09.242Z,3.80
2018-08-31T09:23:09.265Z,3.30
2018-08-31T09:24:09.252Z,7.70
2018-08-31T09:25:09.257Z,3.40
2018-08-31T09:26:09.259Z,3.90
2018-08-31T09:27:09.256Z,3.70
2018-08-31T09:28:09.459Z,2.50
2018-08-31T09:29:09.247Z,3.40
2018-08-31T09:30:09.246Z,4.50
2018-08-31T09:31:09.272Z,4.00
2018-08-31T09:32:09.278Z,4.30
2018-08-31T09:33:09.252Z,3.80
2018-08-31T09:34:09.280Z,2.70
2018-08-31T09:35:09.274Z,2.70
2018-08-31T09:36:09.457Z,2.70
2018-08-31T09:37:09.255Z,3.40
2018-08-31T09:38:09.460Z,4.50
2018-08-31T09:39:09.258Z,2.70
2018-08-31T09:40:09.258Z,2.00
2018-08-31T09:41:09.463Z,3.30
2018-08-31T09:42:09.271Z,4.00
2018-08-31T09:43:09.270Z,3.10
2018-08-31T09:44:09.259Z,3.00
2018-08-31T09:45:09.287Z,4.00
2018-08-31T09:46:09.276Z,3.80
2018-08-31T09:47:09.277Z,3.20
2018-08-31T09:48:09.262Z,4.40
2018-08-31T09:49:09.478Z,4.70
2018-08-31T09:50:09.290Z,3.00
2018-08-31T09:51:09.471Z,4.20
2018-08-31T09:52:09.471Z,4.10
2018-08-31T09:53:09.296Z,2.00
2018-08-31T09:54:09.482Z,4.60
2018-08-31T09:55:09.473Z,2.40
2018-08-31T09:56:09.486Z,4.30
2018-08-31T09:57:09.271Z,4.20
2018-08-31T09:58:09.272Z,3.80
2018-08-31T09:59:09.272Z,2.90
2018-08-31T10:00:09.272Z,2.90
2018-08-31T10:01:09.288Z,2.70
2018-08-31T10:02:09.273Z,3.00
2018-08-31T10:03:09.481Z,2.80
2018-08-31T10:04:09.491Z,3.10
2018-08-31T10:05:09.294Z,2.90
2018-08-31T10:06:09.479Z,3.30
2018-08-31T10:07:09.279Z,3.00
2018-08-31T10:08:09.281Z,6.10
2018-08-31T10:09:09.281Z,2.30
2018-08-31T10:10:09.279Z,3.50
2018-08-31T10:11:09.488Z,2.90
2018-08-31T10:12:09.281Z,2.00
2018-08-31T10:13:09.485Z,2.50
2018-08-31T10:14:09.284Z,3.10
2018-08-31T10:15:09.287Z,2.50
2018-08-31T10:16:09.284Z,4.00
2018-08-31T10:17:09.488Z,3.00
2018-08-31T10:18:09.304Z,4.90
2018-08-31T10:19:09.503Z,2.40
2018-08-31T10:20:09.299Z,2.80
2018-08-31T10:21:09.490Z,3.50
2018-08-31T10:22:09.313Z,1.80
2018-08-31T10:23:09.304Z,3.20
2018-08-31T10:24:09.292Z,2.00
2018-08-31T10:25:09.318Z,3.90
2018-08-31T10:26:09.291Z,1.90
2018-08-31T10:27:09.506Z,3.70
2018-08-31T10:28:09.496Z,4.80
2018-08-31T10:29:09.303Z,2.90
2018-08-31T10:30:09.313Z,3.00
2018-08-31T10:31:09.312Z,2.30
2018-08-31T10:32:09.295Z,2.60
2018-08-31T10:33:09.296Z,3.60
2018-08-31T10:34:09.328Z,4.10
2018-08-31T10:35:09.309Z,3.30
2018-08-31T10:36:09.298Z,2.60
2018-08-31T10:37:09.299Z,2.70
2018-08-31T10:38:09.321Z,2.40
2018-08-31T10:39:09.306Z,3.00
2018-08-31T10:40:09.506Z,3.70
2018-08-31T10:41:09.317Z,3.90
2018-08-31T10:42:09.315Z,3.10
2018-08-31T10:43:09.305Z,2.20
2018-08-31T10:44:09.511Z,2.90
2018-08-31T10:45:09.511Z,2.40
2018-08-31T10:46:09.320Z,3.40
2018-08-31T10:47:09.334Z,2.30
2018-08-31T10:48:09.321Z,2.60
2018-08-31T10:49:09.313Z,3.30
2018-08-31T10:50:09.313Z,3.80
2018-08-31T10:51:09.516Z,2.60
2018-08-31T10:52:09.314Z,1.60
2018-08-31T10:53:09.322Z,2.80
2018-08-31T10:54:09.317Z,1.60
2018-08-31T10:55:09.329Z,3.80
2018-08-31T10:56:09.318Z,2.90
2018-08-31T10:57:09.322Z,3.00
2018-08-31T10:58:09.338Z,2.60
2018-08-31T10:59:09.323Z,2.50
2018-08-31T11:00:09.563Z,3.60
2018-08-31T11:01:09.525Z,2.30
2018-08-31T11:02:09.352Z,2.60
2018-08-31T11:03:09.344Z,1.90
2018-08-31T11:04:09.327Z,2.70
2018-08-31T11:05:09.342Z,2.40
2018-08-31T11:06:09.338Z,3.40
2018-08-31T11:07:09.331Z,2.60
2018-08-31T11:08:09.346Z,3.00
2018-08-31T11:09:09.335Z,3.30
2018-08-31T11:10:09.547Z,1.90
2018-08-31T11:11:09.345Z,3.80
2018-08-31T11:12:09.362Z,1.20
2018-08-31T11:13:09.395Z,2.70
2018-08-31T11:14:09.338Z,2.50
2018-08-31T11:15:09.384Z,2.70
2018-08-31T11:16:09.555Z,3.30
2018-08-31T11:17:09.556Z,2.30
2018-08-31T11:18:09.351Z,2.40
2018-08-31T11:19:09.357Z,2.60
2018-08-31T11:20:09.356Z,3.20
2018-08-31T11:21:09.575Z,3.00
2018-08-31T11:22:09.357Z,1.40
2018-08-31T11:23:09.358Z,2.00
2018-08-31T11:24:09.377Z,4.70
2018-08-31T11:25:09.376Z,2.60
2018-08-31T11:26:09.366Z,2.80
2018-08-31T11:27:09.568Z,1.60
2018-08-31T11:28:09.384Z,3.60
2018-08-31T11:29:09.380Z,2.50
2018-08-31T11:30:09.362Z,3.30
2018-08-31T11:31:09.367Z,2.90
2018-08-31T11:32:09.358Z,2.10
2018-08-31T11:33:09.372Z,2.50
2018-08-31T11:34:09.362Z,2.50
2018-08-31T11:35:09.376Z,1.40
2018-08-31T11:36:09.581Z,1.60
2018-08-31T11:37:09.365Z,2.20
2018-08-31T11:38:09.367Z,2.50
2018-08-31T11:39:09.373Z,2.30
2018-08-31T11:40:09.380Z,2.60
2018-08-31T11:41:09.369Z,3.10
2018-08-31T11:42:09.574Z,2.00
2018-08-31T11:43:09.373Z,2.30
2018-08-31T11:44:09.373Z,2.40
2018-08-31T11:45:09.384Z,2.20
2018-08-31T11:46:09.375Z,4.00
2018-08-31T11:47:09.385Z,5.20
2018-08-31T11:48:09.377Z,2.80
2018-08-31T11:49:09.381Z,2.30
2018-08-31T11:50:09.588Z,3.60
2018-08-31T11:51:09.597Z,2.70
2018-08-31T11:52:09.383Z,5.30
2018-08-31T11:53:09.397Z,3.30
2018-08-31T11:54:09.589Z,2.80
2018-08-31T11:55:09.424Z,3.70
2018-08-31T11:56:09.386Z,1.90
2018-08-31T11:57:09.589Z,2.80
2018-08-31T11:58:09.398Z,3.80
2018-08-31T11:59:09.593Z,3.30
2018-08-31T12:00:09.393Z,2.70
2018-08-31T12:01:09.494Z,3.00
2018-08-31T12:02:09.494Z,3.50
2018-08-31T12:03:09.397Z,3.00
2018-08-31T12:04:09.408Z,2.60
2018-08-31T12:05:09.602Z,2.70
2018-08-31T12:06:09.409Z,2.80
2018-08-31T12:07:09.411Z,3.10
2018-08-31T12:08:09.413Z,4.10
2018-08-31T12:09:09.605Z,2.80
2018-08-31T12:10:09.405Z,2.50
2018-08-31T12:11:09.414Z,2.70
2018-08-31T12:12:09.427Z,1.70
2018-08-31T12:13:09.410Z,2.30
2018-08-31T12:14:09.446Z,2.50
2018-08-31T12:15:09.420Z,2.40
2018-08-31T12:16:09.427Z,2.40
2018-08-31T12:17:09.615Z,2.20
2018-08-31T12:18:09.412Z,2.30
2018-08-31T12:19:09.416Z,3.40
2018-08-31T12:20:09.619Z,2.50
2018-08-31T12:21:09.486Z,3.10
2018-08-31T12:22:09.417Z,2.20
2018-08-31T12:23:09.621Z,2.00
2018-08-31T12:24:09.430Z,3.90
2018-08-31T12:25:09.435Z,3.30
2018-08-31T12:26:09.626Z,3.50
2018-08-31T12:27:09.625Z,2.20
2018-08-31T12:28:09.424Z,4.20
2018-08-31T12:29:09.441Z,2.70
2018-08-31T12:30:09.631Z,2.70
2018-08-31T12:31:09.439Z,2.40
2018-08-31T12:32:09.450Z,2.80
2018-08-31T12:33:09.444Z,2.80
2018-08-31T12:34:09.445Z,4.60
2018-08-31T12:35:09.434Z,4.60
2018-08-31T12:36:09.437Z,2.10
2018-08-31T12:37:09.485Z,4.20
2018-08-31T12:38:09.653Z,1.90
2018-08-31T12:39:09.456Z,5.10
2018-08-31T12:40:09.654Z,3.60
2018-08-31T12:41:09.449Z,4.20
2018-08-31T12:42:09.460Z,2.60
2018-08-31T12:43:09.458Z,3.10
2018-08-31T12:44:09.711Z,2.70
2018-08-31T12:45:09.659Z,4.80
2018-08-31T12:46:09.455Z,4.00
2018-08-31T12:47:09.453Z,2.20
2018-08-31T12:48:09.468Z,3.10
2018-08-31T12:49:09.456Z,3.50
2018-08-31T12:50:09.673Z,2.20
2018-08-31T12:51:09.485Z,3.40
2018-08-31T12:52:09.469Z,3.30
2018-08-31T12:53:09.463Z,3.30
2018-08-31T12:54:09.491Z,2.60
2018-08-31T12:55:09.701Z,2.20
2018-08-31T12:56:09.467Z,2.50
2018-08-31T12:57:09.671Z,2.40
2018-08-31T12:58:09.678Z,2.20
2018-08-31T12:59:09.472Z,1.50
2018-08-31T13:00:09.525Z,1.90
2018-08-31T13:01:09.475Z,3.30
2018-08-31T13:02:09.480Z,5.00
2018-08-31T13:03:09.489Z,3.00
2018-08-31T13:04:09.512Z,3.00
2018-08-31T13:05:09.495Z,3.60
2018-08-31T13:06:09.694Z,4.60
2018-08-31T13:07:09.484Z,3.50
2018-08-31T13:08:09.500Z,2.10
2018-08-31T13:09:09.503Z,3.50
2018-08-31T13:10:09.487Z,3.40
2018-08-31T13:11:09.567Z,2.40
2018-08-31T13:12:09.493Z,2.60
2018-08-31T13:13:09.495Z,2.20
2018-08-31T13:14:09.497Z,2.20
2018-08-31T13:15:09.586Z,2.80
2018-08-31T13:16:09.504Z,4.70
2018-08-31T13:17:09.508Z,3.70
2018-08-31T13:18:09.505Z,2.70